< < Back
Terminal Aerodrome Forecast


Current Version              Previous Versions:   1  2  3  4  5  6  7  8  9  

Terminal Aerodrome Forecast

355
FTUS42 KMLB 232300
TAFDAB
TAF
KDAB 232339Z 2400/2424 VRB02KT P6SM FEW030 SCT200
     FM241400 23006KT P6SM SCT025 SCT250
     FM241800 16007KT P6SM SCT030 SCT250=

Latest METAR

245
SAUS80 KWBC 240000 RRC
MTRDAB
METAR KDAB 232353Z 14004KT 10SM FEW030 FEW049 BKN200 28/24 A3002 RMK AO2
SLP164 CB DSNT S-W T02830239 10317 20283 55006


USA.gov is the U.S. government's official web portal to all federal, state and local government web resources and services.